createdAt,value
2022-08-23T00:00:26.862Z,60.42
2022-08-23T00:01:27.917Z,60.62
2022-08-23T00:02:26.945Z,60.29
2022-08-23T00:03:26.806Z,60.22
2022-08-23T00:04:32.105Z,59.79
2022-08-23T00:05:27.767Z,61.02
2022-08-23T00:06:26.746Z,60.22
2022-08-23T00:07:26.724Z,60.22
2022-08-23T00:08:26.703Z,60.32
2022-08-23T00:09:26.713Z,61.33
2022-08-23T00:10:26.663Z,60.82
2022-08-23T00:11:26.643Z,60.02
2022-08-23T00:12:26.623Z,60.62
2022-08-23T00:13:26.605Z,61.52
2022-08-23T00:14:27.611Z,60.52
2022-08-23T00:15:26.568Z,60.82
2022-08-23T00:16:26.542Z,61.33
2022-08-23T00:17:33.646Z,61.83
2022-08-23T00:18:27.502Z,61.33
2022-08-23T00:19:26.513Z,61.33
2022-08-23T00:20:26.464Z,61.52
2022-08-23T00:21:26.446Z,61.86
2022-08-23T00:22:26.432Z,61.83
2022-08-23T00:23:26.411Z,61.55
2022-08-23T00:24:26.416Z,62.06
2022-08-23T00:25:26.372Z,62.23
2022-08-23T00:26:26.352Z,61.93
2022-08-23T00:27:26.331Z,62.46
2022-08-23T00:28:26.311Z,61.86
2022-08-23T00:29:26.320Z,62.06
2022-08-23T00:30:26.268Z,62.36
2022-08-23T00:31:26.252Z,62.26
2022-08-23T00:32:26.233Z,62.36
2022-08-23T00:33:26.212Z,62.16
2022-08-23T00:34:26.219Z,62.36
2022-08-23T00:35:27.105Z,62.56
2022-08-23T00:36:26.151Z,62.23
2022-08-23T00:37:26.131Z,62.66
2022-08-23T00:38:34.434Z,62.56
2022-08-23T00:39:27.129Z,62.66
2022-08-23T00:40:26.151Z,62.39
2022-08-23T00:41:26.053Z,62.46
2022-08-23T00:42:26.032Z,62.56
2022-08-23T00:43:26.013Z,62.56
2022-08-23T00:44:26.021Z,62.56
2022-08-23T00:45:25.975Z,62.49
2022-08-23T00:46:25.970Z,62.76
2022-08-23T00:47:25.934Z,63.19
2022-08-23T00:48:25.912Z,62.99
2022-08-23T00:49:25.916Z,62.89
2022-08-23T00:50:25.872Z,63.19
2022-08-23T00:51:25.849Z,63.29
2022-08-23T00:52:25.826Z,62.39
2022-08-23T00:53:25.809Z,63.29
2022-08-23T00:54:25.817Z,63.26
2022-08-23T00:55:25.768Z,63.09
2022-08-23T00:56:25.749Z,62.99
2022-08-23T00:57:25.726Z,62.39
2022-08-23T00:58:25.711Z,62.86
2022-08-23T00:59:25.718Z,62.29
2022-08-23T01:00:25.670Z,62.26
2022-08-23T01:01:25.695Z,63.06
2022-08-23T01:02:25.632Z,62.26
2022-08-23T01:03:25.609Z,62.99
2022-08-23T01:04:25.618Z,63.26
2022-08-23T01:05:25.568Z,63.29
2022-08-23T01:06:25.552Z,62.99
2022-08-23T01:07:25.532Z,62.89
2022-08-23T01:08:25.515Z,63.09
2022-08-23T01:09:25.521Z,62.89
2022-08-23T01:10:25.458Z,63.09
2022-08-23T01:11:26.450Z,62.99
2022-08-23T01:12:32.171Z,62.79
2022-08-23T01:13:26.407Z,62.89
2022-08-23T01:14:25.419Z,64.20
2022-08-23T01:15:25.365Z,63.70
2022-08-23T01:16:25.350Z,64.03
2022-08-23T01:17:25.335Z,62.89
2022-08-23T01:18:25.310Z,62.59
2022-08-23T01:19:25.317Z,64.33
2022-08-23T01:20:27.030Z,64.20
2022-08-23T01:21:25.250Z,63.59
2022-08-23T01:22:25.230Z,63.79
2022-08-23T01:23:25.213Z,62.69
2022-08-23T01:25:06.513Z,64.40
2022-08-23T01:25:26.177Z,63.59
2022-08-23T01:26:25.156Z,64.53
2022-08-23T01:27:25.140Z,63.82
2022-08-23T01:28:25.114Z,63.59
2022-08-23T01:29:25.118Z,64.10
2022-08-23T01:30:25.075Z,65.10
2022-08-23T01:31:25.050Z,64.93
2022-08-23T01:32:25.028Z,63.73
2022-08-23T01:33:25.006Z,64.60
2022-08-23T01:34:25.023Z,64.63
2022-08-23T01:36:24.948Z,64.83
2022-08-23T01:37:24.929Z,65.23
2022-08-23T01:38:24.906Z,64.73
2022-08-23T01:39:24.915Z,64.63
2022-08-23T01:40:24.943Z,64.13
2022-08-23T01:41:24.844Z,64.13
2022-08-23T01:42:24.821Z,64.73
2022-08-23T01:43:24.807Z,64.13
2022-08-23T01:44:24.813Z,64.00
2022-08-23T01:45:24.769Z,63.82
2022-08-23T01:46:24.747Z,64.13
2022-08-23T01:47:24.726Z,64.53
2022-08-23T01:48:24.708Z,64.43
2022-08-23T01:49:24.719Z,65.23
2022-08-23T01:50:24.782Z,64.53
2022-08-23T01:51:24.651Z,64.93
2022-08-23T01:52:24.634Z,64.83
2022-08-23T01:53:24.639Z,64.66
2022-08-23T01:54:24.618Z,64.83
2022-08-23T01:55:24.566Z,64.83
2022-08-23T01:56:38.223Z,65.33
2022-08-23T01:57:25.525Z,64.83
2022-08-23T01:58:24.512Z,64.63
2022-08-23T01:59:24.518Z,65.13
2022-08-23T02:00:24.465Z,64.63
2022-08-23T02:01:24.505Z,65.44
2022-08-23T02:02:24.427Z,64.93
2022-08-23T02:03:24.408Z,65.47
2022-08-23T02:04:24.420Z,64.43
2022-08-23T02:05:24.371Z,65.06
2022-08-23T02:06:24.351Z,64.86
2022-08-23T02:07:24.328Z,64.66
2022-08-23T02:08:24.308Z,64.76
2022-08-23T02:09:25.652Z,64.73
2022-08-23T02:10:24.265Z,64.96
2022-08-23T02:11:24.245Z,64.43
2022-08-23T02:12:24.225Z,64.83
2022-08-23T02:13:24.208Z,64.66
2022-08-23T02:14:24.208Z,65.47
2022-08-23T02:15:24.163Z,64.66
2022-08-23T02:16:24.144Z,65.47
2022-08-23T02:17:24.120Z,64.76
2022-08-23T02:18:24.102Z,66.37
2022-08-23T02:19:24.112Z,65.97
2022-08-23T02:20:24.056Z,66.07
2022-08-23T02:21:24.045Z,65.36
2022-08-23T02:22:24.017Z,65.26
2022-08-23T02:23:23.999Z,64.76
2022-08-23T02:24:24.007Z,65.36
2022-08-23T02:25:23.961Z,65.26
2022-08-23T02:26:30.751Z,64.76
2022-08-23T02:27:25.043Z,65.97
2022-08-23T02:28:23.901Z,65.16
2022-08-23T02:29:23.912Z,64.76
2022-08-23T02:30:23.862Z,64.76
2022-08-23T02:31:23.843Z,64.86
2022-08-23T02:32:26.931Z,64.96
2022-08-23T02:33:23.798Z,65.36
2022-08-23T02:34:38.465Z,65.77
2022-08-23T02:35:23.827Z,65.59
2022-08-23T02:36:23.812Z,64.86
2022-08-23T02:37:23.789Z,66.37
2022-08-23T02:38:23.760Z,65.36
2022-08-23T02:39:23.767Z,64.96
2022-08-23T02:40:23.757Z,65.36
2022-08-23T02:41:23.695Z,64.66
2022-08-23T02:42:23.679Z,64.76
2022-08-23T02:43:23.659Z,64.96
2022-08-23T02:44:23.665Z,65.36
2022-08-23T02:45:23.617Z,64.96
2022-08-23T02:46:23.594Z,64.86
2022-08-23T02:47:23.581Z,65.47
2022-08-23T02:48:23.556Z,64.76
2022-08-23T02:49:23.564Z,66.37
2022-08-23T02:50:23.525Z,65.70
2022-08-23T02:51:23.499Z,66.00
2022-08-23T02:52:23.478Z,65.77
2022-08-23T02:53:23.452Z,65.87
2022-08-23T02:54:24.461Z,66.30
2022-08-23T02:55:23.415Z,66.80
2022-08-23T02:56:23.393Z,66.50
2022-08-23T02:57:23.372Z,66.07
2022-08-23T02:58:23.351Z,66.30
2022-08-23T02:59:23.364Z,66.30
2022-08-23T03:00:23.312Z,66.50
2022-08-23T03:01:23.294Z,66.20
2022-08-23T03:02:23.313Z,65.80
2022-08-23T03:03:23.247Z,66.17
2022-08-23T03:04:23.228Z,66.40
2022-08-23T03:05:23.233Z,66.80
2022-08-23T03:06:24.560Z,66.40
2022-08-23T03:07:23.176Z,66.63
2022-08-23T03:08:23.150Z,66.80
2022-08-23T03:09:23.134Z,67.00
2022-08-23T03:10:23.134Z,66.91
2022-08-23T03:11:23.083Z,66.74
2022-08-23T03:12:23.066Z,67.00
2022-08-23T03:13:23.046Z,67.14
2022-08-23T03:14:23.030Z,67.14
2022-08-23T03:15:23.035Z,66.43
2022-08-23T03:16:22.988Z,67.84
2022-08-23T03:17:22.971Z,66.74
2022-08-23T03:18:22.942Z,66.83
2022-08-23T03:19:22.926Z,66.33
2022-08-23T03:20:22.932Z,66.83
2022-08-23T03:21:22.889Z,66.83
2022-08-23T03:22:22.873Z,66.33
2022-08-23T03:23:22.853Z,67.03
2022-08-23T03:24:22.828Z,66.71
2022-08-23T03:25:22.839Z,66.80
2022-08-23T03:26:22.785Z,66.74
2022-08-23T03:27:22.772Z,66.83
2022-08-23T03:28:22.739Z,66.53
2022-08-23T03:29:22.726Z,66.83
2022-08-23T03:30:22.696Z,66.71
2022-08-23T03:31:22.623Z,66.71
2022-08-23T03:32:22.602Z,66.71
2022-08-23T03:33:22.590Z,66.80
2022-08-23T03:34:22.562Z,66.80
2022-08-23T03:35:22.570Z,67.24
2022-08-23T03:36:27.819Z,66.91
2022-08-23T03:37:23.509Z,67.31
2022-08-23T03:38:22.484Z,66.50
2022-08-23T03:39:22.465Z,66.33
2022-08-23T03:40:22.508Z,66.33
2022-08-23T03:41:22.423Z,66.91
2022-08-23T03:42:22.405Z,67.03
2022-08-23T03:43:23.385Z,66.80
2022-08-23T03:44:22.365Z,67.00
2022-08-23T03:45:22.368Z,66.83
2022-08-23T03:46:22.324Z,67.21
2022-08-23T03:47:22.303Z,67.00
2022-08-23T03:48:22.285Z,66.94
2022-08-23T03:49:22.265Z,67.34
2022-08-23T03:50:22.277Z,67.34
2022-08-23T03:51:22.224Z,68.08
2022-08-23T03:52:22.203Z,68.75
2022-08-23T03:53:22.184Z,67.94
2022-08-23T03:54:22.853Z,67.57
2022-08-23T03:55:22.176Z,67.74
2022-08-23T03:56:22.120Z,68.48
2022-08-23T03:57:22.102Z,67.47
2022-08-23T03:58:22.083Z,67.47
2022-08-23T03:59:22.060Z,67.57
2022-08-23T04:00:22.074Z,67.37
2022-08-23T04:01:26.479Z,67.47
2022-08-23T04:02:24.007Z,67.64
2022-08-23T04:03:21.981Z,67.77
2022-08-23T04:04:21.963Z,67.68
2022-08-23T04:05:21.970Z,68.08
2022-08-23T04:06:21.924Z,68.58
2022-08-23T04:07:21.903Z,67.97
2022-08-23T04:08:31.889Z,68.28
2022-08-23T04:09:22.864Z,68.18
2022-08-23T04:10:21.870Z,68.38
2022-08-23T04:11:21.828Z,68.48
2022-08-23T04:12:21.805Z,68.08
2022-08-23T04:13:21.787Z,68.18
2022-08-23T04:14:21.764Z,68.18
2022-08-23T04:15:21.770Z,68.08
2022-08-23T04:16:21.725Z,68.68
2022-08-23T04:17:21.709Z,68.08
2022-08-23T04:18:21.684Z,68.38
2022-08-23T04:19:21.665Z,67.97
2022-08-23T04:20:21.670Z,68.48
2022-08-23T04:21:21.623Z,68.08
2022-08-23T04:22:21.601Z,68.28
2022-08-23T04:23:21.582Z,68.18
2022-08-23T04:24:21.560Z,67.77
2022-08-23T04:25:33.252Z,67.84
2022-08-23T04:26:24.304Z,68.04
2022-08-23T04:27:21.503Z,67.97
2022-08-23T04:28:21.481Z,67.94
2022-08-23T04:29:24.898Z,68.28
2022-08-23T04:30:22.474Z,68.88
2022-08-23T04:31:22.336Z,68.18
2022-08-23T04:32:28.186Z,67.88
2022-08-23T04:33:22.380Z,67.97
2022-08-23T04:34:21.360Z,67.84
2022-08-23T04:35:22.368Z,67.94
2022-08-23T04:36:23.459Z,67.94
2022-08-23T04:37:21.297Z,67.64
2022-08-23T04:38:24.149Z,67.64
2022-08-23T04:39:21.261Z,67.74
2022-08-23T04:40:21.298Z,67.84
2022-08-23T04:41:21.219Z,68.15
2022-08-23T04:42:21.769Z,67.94
2022-08-23T04:43:21.181Z,67.97
2022-08-23T04:44:21.162Z,68.78
2022-08-23T04:45:21.165Z,68.24
2022-08-23T04:46:21.120Z,68.78
2022-08-23T04:47:21.101Z,68.28
2022-08-23T04:48:21.078Z,69.01
2022-08-23T04:49:21.060Z,69.21
2022-08-23T04:50:21.062Z,68.91
2022-08-23T04:51:21.018Z,69.01
2022-08-23T04:52:20.995Z,69.12
2022-08-23T04:53:20.977Z,68.91
2022-08-23T04:54:22.753Z,69.12
2022-08-23T04:55:20.958Z,68.81
2022-08-23T04:56:20.915Z,69.21
2022-08-23T04:57:20.892Z,68.81
2022-08-23T04:58:20.869Z,68.71
2022-08-23T04:59:20.859Z,69.32
2022-08-23T05:00:20.856Z,69.12
2022-08-23T05:01:21.904Z,69.01
2022-08-23T05:02:20.793Z,69.35
2022-08-23T05:03:20.770Z,69.42
2022-08-23T05:04:20.744Z,68.81
2022-08-23T05:05:20.751Z,69.55
2022-08-23T05:06:20.699Z,69.25
2022-08-23T05:07:20.681Z,68.81
2022-08-23T05:08:21.659Z,68.41
2022-08-23T05:09:20.940Z,69.01
2022-08-23T05:10:21.645Z,69.01
2022-08-23T05:11:20.619Z,68.61
2022-08-23T05:12:22.970Z,68.61
2022-08-23T05:13:20.560Z,68.81
2022-08-23T05:14:20.542Z,69.21
2022-08-23T05:15:20.547Z,68.61
2022-08-23T05:16:20.497Z,68.61
2022-08-23T05:17:20.482Z,68.68
2022-08-23T05:18:20.457Z,68.38
2022-08-23T05:19:20.439Z,68.08
2022-08-23T05:20:20.443Z,68.28
2022-08-23T05:21:20.398Z,68.24
2022-08-23T05:22:20.373Z,68.18
2022-08-23T05:23:20.415Z,67.97
2022-08-23T05:24:21.335Z,67.77
2022-08-23T05:25:20.341Z,67.77
2022-08-23T05:26:20.295Z,67.94
2022-08-23T05:27:20.273Z,67.94
2022-08-23T05:28:20.249Z,67.34
2022-08-23T05:29:20.228Z,67.44
2022-08-23T05:30:20.232Z,67.44
2022-08-23T05:31:20.190Z,67.54
2022-08-23T05:32:20.166Z,67.64
2022-08-23T05:33:20.143Z,66.43
2022-08-23T05:34:22.531Z,67.61
2022-08-23T05:35:20.129Z,67.14
2022-08-23T05:36:20.084Z,67.31
2022-08-23T05:37:20.063Z,66.91
2022-08-23T05:38:20.896Z,67.07
2022-08-23T05:39:26.555Z,66.40
2022-08-23T05:40:21.081Z,66.80
2022-08-23T05:41:20.919Z,66.60
2022-08-23T05:42:19.961Z,67.41
2022-08-23T05:43:19.943Z,66.50
2022-08-23T05:44:19.933Z,66.37
2022-08-23T05:45:21.824Z,66.27
2022-08-23T05:46:20.885Z,66.37
2022-08-23T05:47:23.671Z,64.73
2022-08-23T05:48:20.842Z,65.03
2022-08-23T05:49:21.074Z,66.94
2022-08-23T05:50:19.836Z,66.94
2022-08-23T05:51:19.789Z,66.14
2022-08-23T05:52:19.773Z,65.27
2022-08-23T05:53:19.746Z,62.47
2022-08-23T05:54:19.728Z,60.15
2022-08-23T05:55:19.735Z,60.22
2022-08-23T05:56:19.692Z,57.37
2022-08-23T05:57:19.674Z,57.54
2022-08-23T05:58:19.659Z,56.11
2022-08-23T05:59:19.637Z,56.29
2022-08-23T06:00:19.657Z,55.33
2022-08-23T06:01:19.668Z,54.08
2022-08-23T06:02:19.588Z,53.99
2022-08-23T06:03:19.562Z,53.81
2022-08-23T06:04:19.545Z,53.19
2022-08-23T06:05:19.551Z,52.37
2022-08-23T06:06:19.508Z,52.04
2022-08-23T06:07:19.487Z,52.57
2022-08-23T06:08:19.467Z,52.57
2022-08-23T06:09:19.486Z,52.92
2022-08-23T06:10:19.463Z,52.27
2022-08-23T06:11:19.419Z,51.20
2022-08-23T06:12:19.395Z,50.08
2022-08-23T06:13:19.379Z,48.25
2022-08-23T06:14:19.403Z,47.71
2022-08-23T06:15:19.372Z,47.11
2022-08-23T06:16:19.328Z,46.39
2022-08-23T06:17:19.315Z,46.81
2022-08-23T06:18:19.296Z,46.27
2022-08-23T06:19:19.274Z,46.67
2022-08-23T06:20:19.355Z,47.88
2022-08-23T06:21:19.237Z,47.43
2022-08-23T06:22:19.221Z,47.38
2022-08-23T06:23:19.204Z,47.09
2022-08-23T06:24:19.188Z,46.45
2022-08-23T06:25:19.193Z,46.79
2022-08-23T06:26:19.153Z,48.03
2022-08-23T06:27:19.130Z,46.47
2022-08-23T06:28:19.113Z,45.26
2022-08-23T06:29:20.217Z,46.91
2022-08-23T06:30:19.104Z,46.39
2022-08-23T06:31:19.094Z,46.89
2022-08-23T06:32:19.091Z,46.07
2022-08-23T06:33:19.057Z,46.42
2022-08-23T06:34:19.013Z,44.92
2022-08-23T06:35:37.677Z,44.48
2022-08-23T06:36:19.976Z,43.33
2022-08-23T06:37:18.967Z,41.78
2022-08-23T06:38:18.943Z,39.76
2022-08-23T06:39:18.925Z,38.32
2022-08-23T06:40:18.980Z,36.72
2022-08-23T06:41:18.889Z,36.90
2022-08-23T06:42:37.417Z,38.24
2022-08-23T06:43:20.859Z,40.35
2022-08-23T06:44:18.840Z,40.13
2022-08-23T06:45:18.851Z,38.95
2022-08-23T06:46:18.833Z,41.16
2022-08-23T06:47:19.877Z,41.30
2022-08-23T06:48:19.067Z,40.01
2022-08-23T06:49:19.754Z,43.09
2022-08-23T06:50:18.764Z,40.61
2022-08-23T06:51:18.720Z,41.14
2022-08-23T06:52:18.745Z,41.73
2022-08-23T06:53:18.688Z,42.58
2022-08-23T06:54:18.675Z,42.50
2022-08-23T06:55:18.680Z,43.53
2022-08-23T06:56:18.636Z,44.15
2022-08-23T06:57:18.621Z,43.93
2022-08-23T06:58:18.601Z,43.97
2022-08-23T06:59:18.590Z,43.97
2022-08-23T07:00:22.139Z,44.19
2022-08-23T07:01:44.064Z,44.71
2022-08-23T07:02:20.675Z,44.67
2022-08-23T07:03:18.530Z,43.89
2022-08-23T07:04:18.507Z,44.45
2022-08-23T07:05:18.517Z,42.94
2022-08-23T07:06:18.483Z,43.04
2022-08-23T07:07:18.456Z,42.94
2022-08-23T07:08:18.440Z,41.73
2022-08-23T07:09:18.427Z,42.58
2022-08-23T07:10:18.436Z,41.77
2022-08-23T07:11:18.398Z,39.36
2022-08-23T07:12:18.379Z,40.17
2022-08-23T07:13:18.807Z,41.97
2022-08-23T07:14:19.377Z,40.64
2022-08-23T07:15:18.359Z,38.20
2022-08-23T07:16:18.361Z,36.26
2022-08-23T07:17:18.298Z,36.88
2022-08-23T07:18:18.284Z,39.48
2022-08-23T07:19:18.261Z,38.73
2022-08-23T07:20:18.275Z,39.65
2022-08-23T07:21:18.231Z,41.73
2022-08-23T07:22:18.215Z,39.70
2022-08-23T07:23:18.199Z,36.82
2022-08-23T07:24:18.184Z,37.85
2022-08-23T07:25:18.287Z,36.75
2022-08-23T07:26:18.153Z,35.87
2022-08-23T07:27:18.133Z,39.26
2022-08-23T07:28:18.122Z,37.15
2022-08-23T07:29:18.101Z,36.07
2022-08-23T07:30:18.118Z,38.13
2022-08-23T07:31:18.071Z,37.20
2022-08-23T07:32:18.713Z,40.21
2022-08-23T07:33:19.046Z,39.72
2022-08-23T07:34:18.033Z,37.63
2022-08-23T07:35:18.040Z,37.81
2022-08-23T07:36:18.408Z,37.18
2022-08-23T07:37:18.843Z,38.20
2022-08-23T07:38:17.963Z,38.60
2022-08-23T07:39:17.949Z,38.30
2022-08-23T07:40:20.385Z,40.23
2022-08-23T07:41:17.917Z,39.50
2022-08-23T07:42:23.601Z,37.12
2022-08-23T07:43:18.884Z,37.10
2022-08-23T07:44:18.146Z,39.03
2022-08-23T07:45:17.879Z,39.18
2022-08-23T07:46:17.876Z,40.69
2022-08-23T07:47:17.823Z,41.52
2022-08-23T07:48:31.762Z,43.02
2022-08-23T07:49:19.786Z,44.05
2022-08-23T07:50:17.797Z,42.50
2022-08-23T07:51:17.755Z,44.04
2022-08-23T07:52:17.742Z,43.98
2022-08-23T07:53:27.556Z,44.65
2022-08-23T07:54:18.703Z,44.85
2022-08-23T07:55:17.732Z,43.71
2022-08-23T07:56:17.668Z,46.00
2022-08-23T07:57:17.666Z,44.09
2022-08-23T07:58:17.640Z,43.30
2022-08-23T07:59:17.622Z,43.32
2022-08-23T08:00:17.636Z,44.04
2022-08-23T08:01:17.636Z,43.77
2022-08-23T08:02:17.702Z,42.62
2022-08-23T08:03:17.573Z,42.82
2022-08-23T08:04:17.537Z,42.54
2022-08-23T08:05:21.613Z,43.63
2022-08-23T08:06:18.506Z,43.04
2022-08-23T08:07:20.700Z,42.60
2022-08-23T08:08:18.471Z,41.22
2022-08-23T08:09:17.774Z,41.59
2022-08-23T08:10:17.466Z,41.57
2022-08-23T08:11:17.418Z,40.39
2022-08-23T08:12:17.668Z,41.22
2022-08-23T08:13:17.388Z,41.33
2022-08-23T08:14:17.373Z,42.58
2022-08-23T08:15:17.375Z,38.95
2022-08-23T08:16:17.354Z,39.64
2022-08-23T08:17:17.317Z,40.27
2022-08-23T08:18:17.297Z,38.96
2022-08-23T08:19:18.963Z,40.13
2022-08-23T08:20:17.292Z,40.15
2022-08-23T08:21:17.248Z,41.20
2022-08-23T08:22:17.231Z,40.43
2022-08-23T08:23:17.211Z,40.13
2022-08-23T08:24:17.199Z,40.53
2022-08-23T08:25:17.203Z,41.77
2022-08-23T08:26:17.161Z,41.59
2022-08-23T08:27:17.146Z,42.97
2022-08-23T08:28:17.127Z,43.49
2022-08-23T08:29:17.106Z,42.78
2022-08-23T08:30:17.125Z,41.87
2022-08-23T08:31:17.137Z,42.46
2022-08-23T08:32:17.058Z,41.46
2022-08-23T08:33:17.044Z,41.75
2022-08-23T08:34:17.021Z,42.61
2022-08-23T08:35:17.032Z,40.11
2022-08-23T08:36:16.989Z,40.41
2022-08-23T08:37:16.983Z,41.51
2022-08-23T08:38:16.953Z,43.69
2022-08-23T08:39:16.940Z,43.80
2022-08-23T08:40:16.938Z,44.72
2022-08-23T08:41:16.925Z,43.80
2022-08-23T08:42:17.776Z,43.61
2022-08-23T08:43:16.864Z,43.88
2022-08-23T08:44:16.852Z,43.79
2022-08-23T08:45:16.836Z,43.27
2022-08-23T08:46:16.895Z,42.97
2022-08-23T08:47:16.803Z,43.79
2022-08-23T08:48:16.786Z,43.21
2022-08-23T08:49:16.766Z,43.43
2022-08-23T08:50:16.751Z,43.43
2022-08-23T08:51:16.761Z,42.90
2022-08-23T08:52:16.716Z,43.80
2022-08-23T08:53:16.703Z,43.33
2022-08-23T08:54:16.684Z,44.24
2022-08-23T08:55:16.662Z,44.82
2022-08-23T08:56:16.672Z,44.50
2022-08-23T08:57:16.624Z,41.57
2022-08-23T08:58:16.609Z,41.38
2022-08-23T08:59:16.592Z,41.95
2022-08-23T09:00:16.572Z,41.75
2022-08-23T09:01:16.626Z,42.85
2022-08-23T09:02:18.212Z,42.56
2022-08-23T09:03:17.610Z,43.27
2022-08-23T09:04:16.508Z,42.88
2022-08-23T09:05:16.494Z,41.46
2022-08-23T09:06:16.503Z,40.07
2022-08-23T09:07:16.453Z,40.19
2022-08-23T09:08:16.442Z,42.70
2022-08-23T09:09:16.422Z,42.90
2022-08-23T09:10:16.403Z,44.36
2022-08-23T09:11:16.424Z,42.83
2022-08-23T09:12:16.376Z,42.52
2022-08-23T09:13:16.353Z,40.23
2022-08-23T09:14:16.339Z,40.11
2022-08-23T09:15:16.320Z,41.61
2022-08-23T09:16:16.393Z,41.97
2022-08-23T09:17:16.284Z,42.68
2022-08-23T09:18:16.269Z,43.47
2022-08-23T09:19:16.255Z,42.76
2022-08-23T09:20:16.243Z,42.54
2022-08-23T09:21:16.243Z,41.85
2022-08-23T09:22:16.195Z,42.74
2022-08-23T09:23:16.181Z,41.83
2022-08-23T09:24:16.168Z,41.41
2022-08-23T09:25:16.171Z,40.74
2022-08-23T09:26:16.137Z,41.25
2022-08-23T09:27:16.110Z,41.89
2022-08-23T09:28:16.096Z,42.07
2022-08-23T09:29:16.073Z,41.87
2022-08-23T09:30:16.081Z,41.75
2022-08-23T09:31:16.079Z,43.43
2022-08-23T09:32:16.019Z,42.64
2022-08-23T09:33:16.000Z,41.97
2022-08-23T09:34:15.987Z,42.13
2022-08-23T09:35:15.999Z,41.04
2022-08-23T09:36:15.949Z,41.85
2022-08-23T09:37:15.931Z,41.67
2022-08-23T09:38:15.932Z,43.37
2022-08-23T09:39:15.897Z,41.99
2022-08-23T09:40:16.452Z,41.30
2022-08-23T09:41:15.858Z,42.11
2022-08-23T09:42:15.839Z,42.70
2022-08-23T09:43:15.823Z,41.28
2022-08-23T09:44:16.155Z,39.87
2022-08-23T09:45:15.818Z,38.96
2022-08-23T09:46:15.841Z,39.15
2022-08-23T09:47:15.753Z,41.33
2022-08-23T09:48:15.737Z,39.76
2022-08-23T09:49:15.720Z,39.87
2022-08-23T09:50:15.767Z,40.42
2022-08-23T09:51:15.688Z,41.39
2022-08-23T09:52:16.114Z,42.07
2022-08-23T09:53:16.704Z,38.89
2022-08-23T09:54:15.868Z,40.35
2022-08-23T09:55:15.638Z,38.75
2022-08-23T09:56:15.653Z,39.32
2022-08-23T09:57:15.574Z,40.13
2022-08-23T09:58:15.557Z,38.79
2022-08-23T09:59:15.541Z,40.23
2022-08-23T10:00:15.612Z,41.41
2022-08-23T10:01:15.514Z,41.14
2022-08-23T10:02:15.483Z,41.93
2022-08-23T10:03:15.468Z,44.18
2022-08-23T10:04:15.504Z,41.10
2022-08-23T10:05:15.457Z,40.41
2022-08-23T10:06:15.444Z,41.53
2022-08-23T10:07:15.400Z,41.75
2022-08-23T10:08:15.373Z,41.95
2022-08-23T10:09:15.358Z,42.99
2022-08-23T10:10:15.459Z,41.00
2022-08-23T10:11:15.351Z,40.31
2022-08-23T10:12:15.304Z,41.39
2022-08-23T10:13:15.290Z,41.20
2022-08-23T10:14:15.270Z,40.39
2022-08-23T10:15:15.288Z,40.21
2022-08-23T10:16:15.284Z,39.83
2022-08-23T10:17:15.222Z,40.21
2022-08-23T10:18:15.200Z,41.52
2022-08-23T10:19:15.188Z,41.22
2022-08-23T10:20:15.194Z,41.33
2022-08-23T10:21:20.252Z,41.44
2022-08-23T10:22:17.131Z,41.53
2022-08-23T10:23:15.119Z,41.14
2022-08-23T10:24:15.113Z,39.83
2022-08-23T10:25:15.114Z,40.31
2022-08-23T10:26:15.060Z,41.00
2022-08-23T10:27:15.040Z,40.29
2022-08-23T10:28:15.024Z,39.78
2022-08-23T10:29:15.003Z,40.47
2022-08-23T10:30:15.001Z,41.67
2022-08-23T10:31:16.009Z,40.07
2022-08-23T10:32:14.962Z,40.27
2022-08-23T10:33:18.741Z,40.58
2022-08-23T10:34:14.910Z,40.19
2022-08-23T10:35:14.929Z,40.11
2022-08-23T10:36:14.876Z,41.59
2022-08-23T10:37:14.858Z,40.31
2022-08-23T10:38:14.839Z,40.50
2022-08-23T10:39:14.822Z,40.23
2022-08-23T10:40:14.898Z,41.39
2022-08-23T10:41:14.780Z,42.01
2022-08-23T10:42:14.763Z,41.44
2022-08-23T10:43:14.752Z,41.33
2022-08-23T10:44:14.736Z,40.33
2022-08-23T10:45:14.738Z,42.21
2022-08-23T10:46:14.721Z,41.30
2022-08-23T10:47:14.675Z,41.20
2022-08-23T10:48:14.658Z,40.31
2022-08-23T10:49:14.639Z,41.59
2022-08-23T10:50:14.650Z,41.79
2022-08-23T10:51:14.689Z,40.21
2022-08-23T10:52:14.749Z,40.41
2022-08-23T10:53:14.953Z,41.79
2022-08-23T10:54:14.539Z,42.16
2022-08-23T10:55:14.657Z,40.48
2022-08-23T10:56:14.503Z,40.39
2022-08-23T10:57:14.549Z,41.47
2022-08-23T10:58:14.469Z,39.79
2022-08-23T10:59:14.462Z,42.64
2022-08-23T11:00:14.460Z,41.83
2022-08-23T11:01:14.460Z,41.12
2022-08-23T11:02:14.791Z,39.23
2022-08-23T11:03:14.379Z,39.62
2022-08-23T11:04:14.360Z,39.04
2022-08-23T11:05:14.370Z,40.47
2022-08-23T11:06:14.455Z,40.66
2022-08-23T11:07:14.304Z,39.89
2022-08-23T11:08:14.284Z,42.26
2022-08-23T11:09:14.264Z,39.87
2022-08-23T11:10:16.663Z,39.78
2022-08-23T11:11:14.229Z,40.88
2022-08-23T11:12:14.217Z,40.58
2022-08-23T11:13:14.194Z,39.89
2022-08-23T11:14:14.174Z,40.61
2022-08-23T11:15:14.185Z,40.80
2022-08-23T11:16:14.217Z,40.80
2022-08-23T11:17:14.126Z,40.69
2022-08-23T11:18:14.104Z,39.99
2022-08-23T11:19:14.128Z,41.47
2022-08-23T11:20:14.100Z,40.39
2022-08-23T11:21:14.051Z,40.27
2022-08-23T11:22:14.035Z,39.38
2022-08-23T11:23:14.016Z,40.19
2022-08-23T11:24:14.002Z,41.39
2022-08-23T11:25:14.009Z,40.29
2022-08-23T11:26:13.964Z,40.29
2022-08-23T11:27:13.949Z,40.37
2022-08-23T11:28:13.935Z,39.28
2022-08-23T11:29:13.909Z,40.29
2022-08-23T11:30:13.924Z,41.47
2022-08-23T11:31:13.894Z,41.67
2022-08-23T11:32:13.860Z,40.27
2022-08-23T11:33:14.581Z,40.05
2022-08-23T11:34:13.822Z,39.06
2022-08-23T11:35:13.827Z,41.93
2022-08-23T11:36:13.781Z,41.39
2022-08-23T11:37:13.765Z,40.31
2022-08-23T11:38:13.753Z,39.01
2022-08-23T11:39:13.754Z,38.30
2022-08-23T11:40:18.080Z,39.28
2022-08-23T11:41:14.693Z,37.30
2022-08-23T11:42:13.671Z,38.36
2022-08-23T11:43:13.654Z,39.34
2022-08-23T11:44:13.634Z,36.40
2022-08-23T11:45:13.647Z,36.88
2022-08-23T11:46:13.640Z,37.49
2022-08-23T11:47:13.594Z,39.07
2022-08-23T11:48:13.558Z,40.05
2022-08-23T11:49:13.546Z,37.79
2022-08-23T11:50:13.555Z,38.49
2022-08-23T11:51:13.506Z,39.20
2022-08-23T11:52:13.495Z,38.91
2022-08-23T11:53:13.483Z,37.73
2022-08-23T11:54:13.453Z,37.53
2022-08-23T11:55:13.468Z,36.92
2022-08-23T11:56:13.418Z,39.09
2022-08-23T11:57:13.401Z,38.99
2022-08-23T11:58:13.382Z,37.71
2022-08-23T11:59:13.364Z,37.71
2022-08-23T12:00:13.375Z,38.22
2022-08-23T12:01:13.328Z,40.72
2022-08-23T12:02:16.014Z,39.15
2022-08-23T12:03:14.352Z,40.23
2022-08-23T12:04:13.276Z,39.78
2022-08-23T12:05:13.283Z,40.48
2022-08-23T12:06:13.237Z,42.08
2022-08-23T12:07:13.222Z,41.52
2022-08-23T12:08:13.197Z,41.41
2022-08-23T12:09:13.198Z,42.19
2022-08-23T12:10:13.191Z,42.78
2022-08-23T12:11:13.148Z,41.69
2022-08-23T12:12:13.132Z,41.57
2022-08-23T12:13:13.113Z,40.47
2022-08-23T12:14:13.098Z,40.64
2022-08-23T12:15:13.112Z,39.26
2022-08-23T12:16:16.797Z,41.31
2022-08-23T12:17:13.043Z,40.15
2022-08-23T12:18:13.024Z,40.47
2022-08-23T12:19:13.642Z,42.64
2022-08-23T12:20:17.129Z,40.58
2022-08-23T12:21:12.971Z,40.37
2022-08-23T12:22:12.951Z,41.85
2022-08-23T12:23:12.933Z,41.36
2022-08-23T12:24:12.912Z,40.17
2022-08-23T12:25:13.151Z,41.16
2022-08-23T12:26:12.879Z,41.53
2022-08-23T12:27:12.862Z,40.64
2022-08-23T12:28:12.844Z,39.36
2022-08-23T12:29:12.826Z,41.06
2022-08-23T12:30:12.868Z,39.78
2022-08-23T12:31:13.584Z,40.56
2022-08-23T12:32:12.769Z,42.83
2022-08-23T12:33:12.756Z,41.16
2022-08-23T12:34:12.735Z,40.64
2022-08-23T12:35:12.746Z,39.73
2022-08-23T12:36:16.491Z,38.65
2022-08-23T12:37:12.694Z,39.44
2022-08-23T12:38:12.664Z,38.26
2022-08-23T12:39:12.647Z,39.62
2022-08-23T12:40:12.666Z,39.52
2022-08-23T12:41:12.609Z,38.64
2022-08-23T12:42:12.591Z,37.85
2022-08-23T12:43:16.721Z,38.04
2022-08-23T12:44:13.560Z,40.19
2022-08-23T12:45:12.561Z,37.32
2022-08-23T12:46:12.564Z,39.40
2022-08-23T12:47:12.505Z,41.17
2022-08-23T12:48:12.483Z,40.88
2022-08-23T12:49:13.243Z,39.60
2022-08-23T12:50:12.473Z,38.93
2022-08-23T12:51:12.437Z,38.71
2022-08-23T12:52:12.414Z,39.01
2022-08-23T12:53:12.394Z,39.32